createdAt,value
2018-06-14T00:03:36.987Z,100.00
2018-06-14T00:06:06.153Z,100.00
2018-06-14T00:08:35.223Z,100.00
2018-06-14T00:11:04.294Z,100.00
2018-06-14T00:13:33.358Z,100.00
2018-06-14T00:16:12.579Z,100.00
2018-06-14T00:18:41.657Z,100.00
2018-06-14T00:21:12.857Z,100.00
2018-06-14T00:23:41.965Z,100.00
2018-06-14T00:28:46.803Z,100.00
2018-06-14T00:31:16.003Z,100.00
2018-06-14T00:33:45.043Z,100.00
2018-06-14T00:36:17.652Z,100.00
2018-06-14T00:38:47.675Z,100.00
2018-06-14T00:41:17.699Z,100.00
2018-06-14T00:43:47.719Z,100.00
2018-06-14T00:46:19.825Z,100.00
2018-06-14T00:51:24.748Z,97.18
2018-06-14T00:56:29.539Z,97.49
2018-06-14T00:58:58.597Z,97.23
2018-06-14T01:01:27.685Z,97.21
2018-06-14T01:03:56.731Z,96.89
2018-06-14T01:09:01.583Z,97.82
2018-06-14T01:11:30.641Z,97.69
2018-06-14T01:13:59.714Z,97.51
2018-06-14T01:16:28.774Z,97.61
2018-06-14T01:18:58.760Z,96.82
2018-06-14T01:21:27.814Z,97.33
2018-06-14T01:23:56.905Z,97.37
2018-06-14T01:26:34.681Z,98.43
2018-06-14T01:29:03.723Z,98.72
2018-06-14T01:31:32.777Z,98.43
2018-06-14T01:34:01.856Z,99.16
2018-06-14T01:36:30.925Z,98.94
2018-06-14T01:38:59.986Z,98.73
2018-06-14T01:44:04.870Z,99.79
2018-06-14T01:46:33.941Z,100.00
2018-06-14T01:49:03.909Z,100.00
2018-06-14T01:51:32.969Z,100.00
2018-06-14T01:54:02.062Z,99.83
2018-06-14T01:56:31.130Z,99.68
2018-06-14T01:59:00.226Z,99.65
2018-06-14T02:04:07.026Z,100.00
2018-06-14T02:08:44.546Z,100.00
2018-06-14T02:14:08.737Z,100.00
2018-06-14T02:16:38.765Z,100.00
2018-06-14T02:19:11.830Z,99.51
2018-06-14T02:21:40.886Z,99.32
2018-06-14T02:24:13.609Z,99.38
2018-06-14T02:26:42.694Z,99.45
2018-06-14T02:29:11.749Z,99.73
2018-06-14T02:31:40.817Z,99.24
2018-06-14T02:34:10.823Z,99.17
2018-06-14T02:36:39.906Z,99.47
2018-06-14T02:39:09.019Z,100.00
2018-06-14T02:41:39.998Z,100.00
2018-06-14T02:44:11.038Z,100.00
2018-06-14T02:46:40.199Z,100.00
2018-06-14T02:51:45.017Z,100.00
2018-06-14T02:54:14.393Z,100.00
2018-06-14T02:56:43.444Z,100.00
2018-06-14T02:59:13.537Z,100.00
2018-06-14T03:01:42.627Z,100.00
2018-06-14T03:04:12.637Z,100.00
2018-06-14T03:06:41.709Z,100.00
2018-06-14T03:09:10.917Z,100.00
2018-06-14T03:11:39.980Z,100.00
2018-06-14T03:14:10.038Z,100.00
2018-06-14T03:16:39.105Z,100.00
2018-06-14T03:19:08.250Z,100.00
2018-06-14T03:21:38.495Z,100.00
2018-06-14T03:24:07.550Z,100.00
2018-06-14T03:26:37.598Z,100.00
2018-06-14T03:29:06.673Z,100.00
2018-06-14T03:31:35.739Z,100.00
2018-06-14T03:34:04.884Z,100.00
2018-06-14T03:36:33.979Z,100.00
2018-06-14T03:39:06.061Z,100.00
2018-06-14T03:41:35.128Z,100.00
2018-06-14T03:44:04.177Z,100.00
2018-06-14T03:46:35.208Z,100.00
2018-06-14T03:49:06.244Z,100.00
2018-06-14T03:51:38.735Z,100.00
2018-06-14T03:56:43.515Z,100.00
2018-06-14T04:01:48.356Z,100.00
2018-06-14T04:04:19.375Z,100.00
2018-06-14T04:06:48.433Z,100.00
2018-06-14T04:09:17.503Z,100.00
2018-06-14T04:11:46.557Z,100.00
2018-06-14T04:14:15.623Z,100.00
2018-06-14T04:16:44.674Z,100.00
2018-06-14T04:19:17.563Z,100.00
2018-06-14T04:21:46.686Z,100.00
2018-06-14T04:24:20.155Z,100.00
2018-06-14T04:26:49.510Z,100.00
2018-06-14T04:29:18.565Z,100.00
2018-06-14T04:31:47.653Z,100.00
2018-06-14T04:34:17.711Z,100.00
2018-06-14T04:36:46.927Z,100.00
2018-06-14T04:39:16.022Z,100.00
2018-06-14T04:41:45.094Z,100.00
2018-06-14T04:44:15.102Z,100.00
2018-06-14T04:46:44.243Z,100.00
2018-06-14T04:51:49.075Z,100.00
2018-06-14T04:54:18.558Z,100.00
2018-06-14T04:56:47.615Z,100.00
2018-06-14T04:59:17.686Z,100.00
2018-06-14T05:01:46.873Z,100.00
2018-06-14T05:04:18.499Z,100.00
2018-06-14T05:06:48.226Z,100.00
2018-06-14T05:09:17.265Z,100.00
2018-06-14T05:11:46.361Z,100.00
2018-06-14T05:14:15.427Z,100.00
2018-06-14T05:16:44.895Z,100.00
2018-06-14T05:21:49.985Z,100.00
2018-06-14T05:24:19.069Z,99.12
2018-06-14T05:26:48.196Z,98.59
2018-06-14T05:29:17.254Z,97.77
2018-06-14T05:31:46.473Z,97.69
2018-06-14T05:34:15.534Z,97.87
2018-06-14T05:36:44.590Z,97.36
2018-06-14T05:39:13.671Z,97.13
2018-06-14T05:41:42.925Z,96.48
2018-06-14T05:44:12.923Z,95.83
2018-06-14T05:46:41.985Z,95.42
2018-06-14T05:49:12.051Z,94.86
2018-06-14T05:51:41.134Z,93.76
2018-06-14T05:54:10.197Z,94.93
2018-06-14T05:56:39.250Z,94.56
2018-06-14T05:59:08.337Z,92.46
2018-06-14T06:01:37.564Z,92.31
2018-06-14T06:04:08.868Z,93.84
2018-06-14T06:06:37.935Z,92.99
2018-06-14T06:11:42.696Z,92.30
2018-06-14T06:14:12.663Z,92.15
2018-06-14T06:16:41.741Z,91.63
2018-06-14T06:19:10.861Z,90.41
2018-06-14T06:21:39.925Z,90.42
2018-06-14T06:24:08.991Z,90.74
2018-06-14T06:26:38.037Z,90.30
2018-06-14T06:29:07.433Z,83.44
2018-06-14T06:31:36.576Z,87.11
2018-06-14T06:34:05.623Z,85.43
2018-06-14T06:36:34.678Z,84.99
2018-06-14T06:39:03.967Z,85.68
2018-06-14T06:41:32.995Z,85.37
2018-06-14T06:44:02.091Z,81.26
2018-06-14T06:46:33.115Z,84.07
2018-06-14T06:51:37.881Z,78.02
2018-06-14T06:54:07.294Z,75.01
2018-06-14T06:56:37.361Z,76.96
2018-06-14T06:59:06.470Z,72.55
2018-06-14T07:01:35.538Z,69.06
2018-06-14T07:04:04.585Z,65.50
2018-06-14T07:06:33.829Z,63.38
2018-06-14T07:09:02.872Z,66.36
2018-06-14T07:11:31.963Z,70.55
2018-06-14T07:14:00.998Z,70.81
2018-06-14T07:16:30.246Z,67.83
2018-06-14T07:18:59.297Z,62.35
2018-06-14T07:21:28.382Z,69.19
2018-06-14T07:23:57.438Z,64.35
2018-06-14T07:26:26.638Z,64.84
2018-06-14T07:28:55.693Z,61.34
2018-06-14T07:34:00.479Z,58.61
2018-06-14T07:36:29.549Z,62.26
2018-06-14T07:38:58.609Z,65.48
2018-06-14T07:41:27.990Z,56.28
2018-06-14T07:43:57.061Z,58.71
2018-06-14T07:46:27.081Z,65.31
2018-06-14T07:48:56.166Z,63.91
2018-06-14T07:51:26.367Z,56.16
2018-06-14T07:53:55.589Z,61.93
2018-06-14T07:56:24.627Z,56.80
2018-06-14T07:58:53.694Z,62.87
2018-06-14T08:01:23.007Z,62.39
2018-06-14T08:03:52.288Z,56.23
2018-06-14T08:06:21.369Z,59.23
2018-06-14T08:08:51.432Z,56.63
2018-06-14T08:11:20.620Z,56.63
2018-06-14T08:13:50.099Z,55.02
2018-06-14T08:16:19.122Z,59.34
2018-06-14T08:18:48.192Z,55.04
2018-06-14T08:21:17.334Z,51.96
2018-06-14T08:23:46.701Z,54.37
2018-06-14T08:26:15.817Z,60.88
2018-06-14T08:31:20.610Z,59.73
2018-06-14T08:33:49.682Z,54.61
2018-06-14T08:36:18.757Z,52.65
2018-06-14T08:38:47.814Z,58.99
2018-06-14T08:41:16.862Z,52.69
2018-06-14T08:46:21.694Z,52.41
2018-06-14T08:48:50.722Z,55.47
2018-06-14T08:51:19.884Z,53.92
2018-06-14T08:53:48.989Z,56.84
2018-06-14T08:56:18.061Z,54.11
2018-06-14T08:58:48.017Z,48.58
2018-06-14T09:01:17.181Z,51.74
2018-06-14T09:03:47.193Z,52.22
2018-06-14T09:11:30.007Z,48.44
2018-06-14T09:13:59.053Z,46.87
2018-06-14T09:16:28.145Z,50.08
2018-06-14T09:18:57.208Z,45.61
2018-06-14T09:21:26.278Z,44.94
2018-06-14T09:23:55.347Z,49.48
2018-06-14T09:26:24.609Z,43.75
2018-06-14T09:31:29.477Z,46.00
2018-06-14T09:33:59.691Z,40.71
2018-06-14T09:36:28.751Z,49.31
2018-06-14T09:38:57.823Z,48.91
2018-06-14T09:41:27.812Z,48.07
2018-06-14T09:43:57.128Z,43.03
2018-06-14T09:46:26.189Z,43.47
2018-06-14T09:48:56.243Z,49.46
2018-06-14T09:51:25.290Z,46.60
2018-06-14T09:53:57.927Z,51.83
2018-06-14T09:56:26.979Z,50.26
2018-06-14T09:58:56.037Z,46.54
2018-06-14T10:01:25.221Z,50.88
2018-06-14T10:03:55.475Z,52.95
2018-06-14T10:06:24.576Z,52.46
2018-06-14T10:08:53.630Z,50.78
2018-06-14T10:11:22.687Z,50.30
2018-06-14T10:13:51.741Z,52.00
2018-06-14T10:16:21.674Z,52.00
2018-06-14T10:18:50.726Z,48.34
2018-06-14T10:21:19.788Z,51.21
2018-06-14T10:23:49.998Z,48.79
2018-06-14T10:26:19.078Z,49.55
2018-06-14T10:28:48.125Z,47.29
2018-06-14T10:31:17.188Z,48.63
2018-06-14T10:33:48.188Z,49.06
2018-06-14T10:36:17.354Z,49.43
2018-06-14T10:38:47.368Z,47.01
2018-06-14T10:41:17.365Z,48.26
2018-06-14T10:43:46.434Z,49.97
2018-06-14T10:46:15.567Z,47.67
2018-06-14T10:48:44.617Z,46.34
2018-06-14T10:51:13.722Z,46.08
2018-06-14T10:53:42.783Z,48.53
2018-06-14T10:56:15.135Z,48.28
2018-06-14T10:58:45.209Z,45.60
2018-06-14T11:01:15.410Z,47.60
2018-06-14T11:06:20.382Z,45.56
2018-06-14T11:08:49.498Z,47.26
2018-06-14T11:11:19.529Z,47.89
2018-06-14T11:13:48.610Z,47.17
2018-06-14T11:16:17.675Z,46.39
2018-06-14T11:18:47.661Z,46.73
2018-06-14T11:21:17.695Z,45.84
2018-06-14T11:23:46.753Z,44.50
2018-06-14T11:26:15.890Z,44.14
2018-06-14T11:28:45.921Z,41.41
2018-06-14T11:31:14.973Z,40.69
2018-06-14T11:33:45.051Z,42.03
2018-06-14T11:36:21.103Z,41.50
2018-06-14T11:38:50.152Z,42.09
2018-06-14T11:41:19.195Z,40.52
2018-06-14T11:43:48.305Z,39.81
2018-06-14T11:48:53.294Z,39.51
2018-06-14T11:51:24.198Z,37.71
2018-06-14T11:53:53.262Z,41.14
2018-06-14T11:58:58.101Z,37.85
2018-06-14T12:01:27.155Z,38.30
2018-06-14T12:03:56.294Z,37.20
2018-06-14T12:06:25.526Z,37.84
2018-06-14T12:08:54.583Z,36.95
2018-06-14T12:11:23.643Z,39.67
2018-06-14T12:13:52.695Z,39.06
2018-06-14T12:16:22.124Z,39.55
2018-06-14T12:18:51.238Z,37.83
2018-06-14T12:21:20.331Z,37.78
2018-06-14T12:23:49.375Z,35.10
2018-06-14T12:26:21.396Z,37.11
2018-06-14T12:28:50.646Z,36.06
2018-06-14T12:31:20.664Z,35.41
2018-06-14T12:33:49.693Z,34.97
2018-06-14T12:36:18.758Z,34.97
2018-06-14T12:38:48.877Z,35.71
2018-06-14T12:41:17.931Z,32.88
2018-06-14T12:43:47.039Z,35.10
2018-06-14T12:48:51.893Z,32.78
2018-06-14T12:51:21.093Z,35.26
2018-06-14T12:53:50.474Z,34.15
2018-06-14T12:56:19.606Z,33.95
2018-06-14T12:58:48.662Z,35.17
2018-06-14T13:01:18.119Z,33.57
2018-06-14T13:06:22.566Z,32.38
2018-06-14T13:08:54.162Z,30.64
2018-06-14T13:11:23.386Z,28.54
2018-06-14T13:13:52.446Z,27.83
2018-06-14T13:16:21.496Z,24.66
2018-06-14T13:18:50.826Z,24.71
2018-06-14T13:21:20.054Z,27.41
2018-06-14T13:23:49.146Z,30.13
2018-06-14T13:26:18.193Z,27.58
2018-06-14T13:28:47.242Z,26.35
2018-06-14T13:31:16.574Z,23.46
2018-06-14T13:33:45.644Z,28.43
2018-06-14T13:36:14.784Z,27.96
2018-06-14T13:38:43.862Z,28.83
2018-06-14T13:41:13.145Z,29.81
2018-06-14T13:43:45.724Z,31.65
2018-06-14T13:46:14.802Z,32.34
2018-06-14T13:48:43.877Z,33.27
2018-06-14T13:51:12.963Z,33.12
2018-06-14T13:53:46.224Z,33.16
2018-06-14T13:56:18.675Z,34.34
2018-06-14T13:58:55.923Z,34.12
2018-06-14T14:01:24.963Z,34.58
2018-06-14T14:04:04.206Z,33.69
2018-06-14T14:06:37.798Z,29.51
2018-06-14T14:09:07.970Z,28.22
2018-06-14T14:11:37.196Z,31.73
2018-06-14T14:14:07.576Z,29.10
2018-06-14T14:16:36.870Z,32.21
2018-06-14T14:19:07.308Z,31.37
2018-06-14T14:24:12.322Z,31.28
2018-06-14T14:26:41.682Z,34.00
2018-06-14T14:29:12.610Z,34.50
2018-06-14T14:31:41.697Z,35.43
2018-06-14T14:36:46.643Z,36.86
2018-06-14T14:39:15.751Z,38.05
2018-06-14T14:44:20.609Z,36.60
2018-06-14T14:46:49.795Z,38.75
2018-06-14T14:49:18.850Z,38.06
2018-06-14T14:51:47.906Z,39.32
2018-06-14T14:54:16.988Z,38.59
2018-06-14T14:56:46.695Z,38.87
2018-06-14T14:59:16.686Z,40.56
2018-06-14T15:01:58.218Z,39.77
2018-06-14T15:04:27.980Z,42.89
2018-06-14T15:06:57.784Z,40.41
2018-06-14T15:09:29.121Z,39.98
2018-06-14T15:14:41.834Z,36.57
2018-06-14T15:17:11.222Z,34.42
2018-06-14T15:19:51.609Z,32.72
2018-06-14T15:22:21.025Z,31.54
2018-06-14T15:24:52.560Z,31.45
2018-06-14T15:27:24.256Z,34.33
2018-06-14T15:30:03.083Z,32.69
2018-06-14T15:32:32.913Z,36.22
2018-06-14T15:35:02.125Z,35.29
2018-06-14T15:37:43.374Z,37.16
2018-06-14T15:40:24.672Z,38.82
2018-06-14T15:42:54.393Z,39.89
2018-06-14T15:45:23.812Z,39.54
2018-06-14T15:47:52.976Z,40.32
2018-06-14T15:50:28.203Z,39.40
2018-06-14T15:53:08.916Z,40.33
2018-06-14T15:55:39.638Z,41.23
2018-06-14T15:58:09.884Z,41.58
2018-06-14T16:00:38.946Z,41.06
2018-06-14T16:03:17.090Z,41.41
2018-06-14T16:05:46.695Z,41.37
2018-06-14T16:08:22.140Z,40.82
2018-06-14T16:16:04.363Z,29.16
2018-06-14T16:18:33.633Z,30.56
2018-06-14T16:23:38.229Z,28.29
2018-06-14T16:26:07.286Z,29.27
2018-06-14T16:28:36.500Z,30.35
2018-06-14T16:33:43.309Z,33.25
2018-06-14T16:36:12.387Z,33.79
2018-06-14T16:38:41.551Z,34.83
2018-06-14T16:41:11.838Z,35.88
2018-06-14T16:43:40.907Z,35.58
2018-06-14T16:46:09.987Z,36.05
2018-06-14T16:48:39.049Z,37.11
2018-06-14T16:51:08.305Z,38.51
2018-06-14T16:53:37.450Z,39.17
2018-06-14T16:56:08.568Z,39.27
2018-06-14T16:58:37.572Z,39.83
2018-06-14T17:01:06.831Z,40.17
2018-06-14T17:03:35.890Z,41.08
2018-06-14T17:06:05.016Z,41.37
2018-06-14T17:08:34.410Z,41.36
2018-06-14T17:13:39.331Z,43.20
2018-06-14T17:16:08.423Z,42.33
2018-06-14T17:21:13.351Z,41.80
2018-06-14T17:23:42.753Z,44.40
2018-06-14T17:26:11.843Z,43.95
2018-06-14T17:28:40.989Z,45.98
2018-06-14T17:31:10.936Z,45.21
2018-06-14T17:33:40.172Z,46.33
2018-06-14T17:36:09.248Z,45.95
2018-06-14T17:41:14.153Z,48.56
2018-06-14T17:43:44.035Z,48.22
2018-06-14T17:46:13.219Z,52.22
2018-06-14T17:48:42.204Z,52.66
2018-06-14T17:51:11.378Z,54.29
2018-06-14T17:53:40.600Z,52.02
2018-06-14T17:56:09.672Z,52.48
2018-06-14T17:58:38.805Z,53.75
2018-06-14T18:01:12.230Z,55.45
2018-06-14T18:03:41.510Z,56.07
2018-06-14T18:06:10.661Z,56.10
2018-06-14T18:11:15.942Z,56.72
2018-06-14T18:13:45.207Z,59.23
2018-06-14T18:16:14.270Z,59.22
2018-06-14T18:18:43.419Z,62.97
2018-06-14T18:23:50.468Z,59.86
2018-06-14T18:26:19.696Z,62.89
2018-06-14T18:34:00.332Z,63.70
2018-06-14T18:36:30.326Z,65.31
2018-06-14T18:39:03.415Z,66.34
2018-06-14T18:44:08.310Z,65.13
2018-06-14T18:46:37.368Z,70.69
2018-06-14T18:49:06.430Z,67.69
2018-06-14T18:51:35.496Z,69.94
2018-06-14T18:56:40.352Z,67.52
2018-06-14T18:59:17.031Z,72.56
2018-06-14T19:01:47.044Z,72.84
2018-06-14T19:04:25.216Z,78.74
2018-06-14T19:09:30.101Z,79.40
2018-06-14T19:11:59.254Z,79.37
2018-06-14T19:14:28.373Z,82.92
2018-06-14T19:19:34.053Z,83.90
2018-06-14T19:22:04.089Z,77.86
2018-06-14T19:24:33.178Z,82.32
2018-06-14T19:27:03.843Z,85.36
2018-06-14T19:29:32.919Z,90.07
2018-06-14T19:32:02.162Z,84.93
2018-06-14T19:34:31.299Z,83.90
2018-06-14T19:37:01.447Z,84.35
2018-06-14T19:39:30.551Z,84.29
2018-06-14T19:42:00.542Z,85.32
2018-06-14T19:44:29.618Z,82.03
2018-06-14T19:46:58.792Z,83.99
2018-06-14T19:49:31.320Z,86.83
2018-06-14T19:52:00.366Z,85.21
2018-06-14T19:54:29.445Z,88.46
2018-06-14T19:56:58.556Z,88.19
2018-06-14T20:02:03.475Z,82.57
2018-06-14T20:04:35.601Z,83.39
2018-06-14T20:07:06.070Z,84.72
2018-06-14T20:09:36.033Z,88.54
2018-06-14T20:12:05.078Z,91.42
2018-06-14T20:14:34.135Z,92.20
2018-06-14T20:17:04.213Z,89.94
2018-06-14T20:19:35.351Z,88.77
2018-06-14T20:22:04.501Z,88.50
2018-06-14T20:27:09.340Z,87.47
2018-06-14T20:29:39.070Z,83.94
2018-06-14T20:32:08.123Z,86.57
2018-06-14T20:34:37.195Z,90.10
2018-06-14T20:37:06.282Z,91.79
2018-06-14T20:39:35.493Z,90.44
2018-06-14T20:42:04.658Z,86.70
2018-06-14T20:44:33.861Z,88.44
2018-06-14T20:47:02.961Z,90.29
2018-06-14T20:49:32.030Z,89.02
2018-06-14T20:52:01.330Z,88.08
2018-06-14T20:54:31.625Z,91.61
2018-06-14T20:57:00.730Z,93.78
2018-06-14T20:59:29.852Z,89.90
2018-06-14T21:01:58.981Z,92.50
2018-06-14T21:04:28.868Z,95.09
2018-06-14T21:06:57.940Z,97.25
2018-06-14T21:09:30.955Z,92.60
2018-06-14T21:12:00.005Z,94.13
2018-06-14T21:17:04.931Z,92.33
2018-06-14T21:19:34.073Z,94.39
2018-06-14T21:22:03.158Z,93.35
2018-06-14T21:24:32.223Z,91.42
2018-06-14T21:27:01.512Z,93.31
2018-06-14T21:29:30.579Z,92.44
2018-06-14T21:31:59.655Z,94.02
2018-06-14T21:34:30.742Z,91.50
2018-06-14T21:36:59.915Z,95.40
2018-06-14T21:39:28.959Z,95.10
2018-06-14T21:41:58.011Z,95.72
2018-06-14T21:47:02.890Z,97.48
2018-06-14T21:49:31.967Z,93.50
2018-06-14T21:52:01.019Z,95.89
2018-06-14T21:54:30.088Z,97.36
2018-06-14T21:56:59.134Z,97.91
2018-06-14T21:59:29.118Z,99.69
2018-06-14T22:01:58.220Z,96.91
2018-06-14T22:04:27.319Z,97.29
2018-06-14T22:06:56.378Z,98.31
2018-06-14T22:09:25.421Z,98.70
2018-06-14T22:11:55.365Z,97.78
2018-06-14T22:14:24.441Z,96.32
2018-06-14T22:16:54.823Z,97.79
2018-06-14T22:19:23.838Z,98.24
2018-06-14T22:21:53.549Z,99.87
2018-06-14T22:24:22.608Z,98.48
2018-06-14T22:26:52.911Z,99.62
2018-06-14T22:29:24.042Z,99.59
2018-06-14T22:31:54.041Z,98.68
2018-06-14T22:36:58.858Z,96.16
2018-06-14T22:39:27.934Z,95.05
2018-06-14T22:41:57.889Z,96.19
2018-06-14T22:44:27.899Z,98.39
2018-06-14T22:46:56.936Z,97.88
2018-06-14T22:49:25.972Z,98.70
2018-06-14T22:51:56.041Z,99.55
2018-06-14T22:57:00.841Z,99.22
2018-06-14T22:59:30.844Z,100.00
2018-06-14T23:01:59.894Z,100.00
2018-06-14T23:04:28.942Z,98.54
2018-06-14T23:06:58.033Z,97.67
2018-06-14T23:09:27.053Z,100.00
2018-06-14T23:11:56.111Z,99.44
2018-06-14T23:14:25.157Z,97.96
2018-06-14T23:16:55.489Z,96.72
2018-06-14T23:19:24.538Z,96.93
2018-06-14T23:21:54.814Z,100.00
2018-06-14T23:24:25.842Z,100.00
2018-06-14T23:26:54.915Z,100.00
2018-06-14T23:29:24.001Z,100.00
2018-06-14T23:31:53.496Z,100.00
2018-06-14T23:34:22.554Z,99.72
2018-06-14T23:36:52.751Z,98.52
2018-06-14T23:39:21.789Z,99.95
2018-06-14T23:41:53.526Z,98.31
2018-06-14T23:44:22.590Z,97.63
2018-06-14T23:46:52.782Z,98.03
2018-06-14T23:49:21.855Z,95.28
2018-06-14T23:51:51.944Z,95.16
2018-06-14T23:54:21.293Z,97.63
2018-06-14T23:56:51.798Z,97.87
2018-06-14T23:59:21.829Z,96.51
